sensor_id;sensor_type;location;lat;lon;timestamp;temperature;humidity
8591;DHT22;4333;48.322;14.340;2023-02-22T00:00:37;4.60;99.90
8591;DHT22;4333;48.322;14.340;2023-02-22T00:03:21;4.70;99.90
8591;DHT22;4333;48.322;14.340;2023-02-22T00:05:58;4.60;99.90
8591;DHT22;4333;48.322;14.340;2023-02-22T00:08:30;4.60;99.90
8591;DHT22;4333;48.322;14.340;2023-02-22T00:11:07;4.60;99.90
8591;DHT22;4333;48.322;14.340;2023-02-22T00:13:34;4.50;99.90
8591;DHT22;4333;48.322;14.340;2023-02-22T00:16:00;4.60;99.90
8591;DHT22;4333;48.322;14.340;2023-02-22T00:18:29;4.60;99.90
8591;DHT22;4333;48.322;14.340;2023-02-22T00:20:58;4.60;99.90
8591;DHT22;4333;48.322;14.340;2023-02-22T00:23:26;4.70;99.90
8591;DHT22;4333;48.322;14.340;2023-02-22T00:25:55;4.70;99.90
8591;DHT22;4333;48.322;14.340;2023-02-22T00:28:21;4.70;99.90
8591;DHT22;4333;48.322;14.340;2023-02-22T00:30:51;4.70;99.90
8591;DHT22;4333;48.322;14.340;2023-02-22T00:33:17;4.60;99.90
8591;DHT22;4333;48.322;14.340;2023-02-22T00:35:46;4.50;99.90
8591;DHT22;4333;48.322;14.340;2023-02-22T00:38:14;4.50;99.90
8591;DHT22;4333;48.322;14.340;2023-02-22T00:40:40;4.40;99.90
8591;DHT22;4333;48.322;14.340;2023-02-22T00:43:06;4.30;99.90
8591;DHT22;4333;48.322;14.340;2023-02-22T00:45:34;4.10;99.90
8591;DHT22;4333;48.322;14.340;2023-02-22T00:48:00;4.00;99.90
8591;DHT22;4333;48.322;14.340;2023-02-22T00:50:29;4.20;99.90
8591;DHT22;4333;48.322;14.340;2023-02-22T00:52:56;4.20;99.90
8591;DHT22;4333;48.322;14.340;2023-02-22T00:55:28;4.30;99.90
8591;DHT22;4333;48.322;14.340;2023-02-22T00:57:55;4.40;99.90
8591;DHT22;4333;48.322;14.340;2023-02-22T01:00:35;4.40;99.90
8591;DHT22;4333;48.322;14.340;2023-02-22T01:03:02;4.40;99.90
8591;DHT22;4333;48.322;14.340;2023-02-22T01:05:30;4.40;99.90
8591;DHT22;4333;48.322;14.340;2023-02-22T01:07:57;4.50;99.90
8591;DHT22;4333;48.322;14.340;2023-02-22T01:10:26;4.50;99.90
8591;DHT22;4333;48.322;14.340;2023-02-22T01:12:58;4.40;99.90
8591;DHT22;4333;48.322;14.340;2023-02-22T01:15:25;4.40;99.90
8591;DHT22;4333;48.322;14.340;2023-02-22T01:17:53;4.30;99.90
8591;DHT22;4333;48.322;14.340;2023-02-22T01:20:23;4.40;99.90
8591;DHT22;4333;48.322;14.340;2023-02-22T01:22:53;4.40;99.90
8591;DHT22;4333;48.322;14.340;2023-02-22T01:25:23;4.40;99.90
8591;DHT22;4333;48.322;14.340;2023-02-22T01:27:51;4.40;99.90
8591;DHT22;4333;48.322;14.340;2023-02-22T01:30:22;4.30;99.90
8591;DHT22;4333;48.322;14.340;2023-02-22T01:32:51;4.40;99.90
8591;DHT22;4333;48.322;14.340;2023-02-22T01:35:21;4.30;99.90
8591;DHT22;4333;48.322;14.340;2023-02-22T01:37:47;4.00;99.90
8591;DHT22;4333;48.322;14.340;2023-02-22T01:40:40;3.90;99.90
8591;DHT22;4333;48.322;14.340;2023-02-22T01:43:22;3.80;99.90
8591;DHT22;4333;48.322;14.340;2023-02-22T01:45:54;3.80;99.90
8591;DHT22;4333;48.322;14.340;2023-02-22T01:50:58;3.80;99.90
8591;DHT22;4333;48.322;14.340;2023-02-22T01:53:32;3.90;99.90
8591;DHT22;4333;48.322;14.340;2023-02-22T01:56:00;4.00;99.90
8591;DHT22;4333;48.322;14.340;2023-02-22T01:58:29;3.90;99.90
8591;DHT22;4333;48.322;14.340;2023-02-22T02:00:57;3.90;99.90
8591;DHT22;4333;48.322;14.340;2023-02-22T02:03:28;3.90;99.90
8591;DHT22;4333;48.322;14.340;2023-02-22T02:05:58;3.80;99.90
8591;DHT22;4333;48.322;14.340;2023-02-22T02:08:36;3.80;99.90
8591;DHT22;4333;48.322;14.340;2023-02-22T02:11:07;3.80;99.90
8591;DHT22;4333;48.322;14.340;2023-02-22T02:13:33;3.80;99.90
8591;DHT22;4333;48.322;14.340;2023-02-22T02:16:01;3.80;99.90
8591;DHT22;4333;48.322;14.340;2023-02-22T02:18:28;3.80;99.90
8591;DHT22;4333;48.322;14.340;2023-02-22T02:46:30;3.40;99.90
8591;DHT22;4333;48.322;14.340;2023-02-22T02:49:04;3.40;99.90
8591;DHT22;4333;48.322;14.340;2023-02-22T02:51:40;3.40;99.90
8591;DHT22;4333;48.322;14.340;2023-02-22T02:54:07;3.40;99.90
8591;DHT22;4333;48.322;14.340;2023-02-22T02:56:34;3.40;99.90
8591;DHT22;4333;48.322;14.340;2023-02-22T02:59:00;3.40;99.90
8591;DHT22;4333;48.322;14.340;2023-02-22T03:04:36;3.30;99.90
8591;DHT22;4333;48.322;14.340;2023-02-22T03:07:27;3.30;99.90
8591;DHT22;4333;48.322;14.340;2023-02-22T03:20:49;3.10;99.90
8591;DHT22;4333;48.322;14.340;2023-02-22T03:26:31;3.00;99.90
8591;DHT22;4333;48.322;14.340;2023-02-22T03:29:00;3.00;99.90
8591;DHT22;4333;48.322;14.340;2023-02-22T03:31:34;3.00;99.90
8591;DHT22;4333;48.322;14.340;2023-02-22T03:34:18;2.90;99.90
8591;DHT22;4333;48.322;14.340;2023-02-22T03:39:53;2.90;99.90
8591;DHT22;4333;48.322;14.340;2023-02-22T03:42:30;2.80;99.90
8591;DHT22;4333;48.322;14.340;2023-02-22T03:45:00;2.80;99.90
8591;DHT22;4333;48.322;14.340;2023-02-22T03:47:47;2.90;99.90
8591;DHT22;4333;48.322;14.340;2023-02-22T03:50:24;2.80;99.90
8591;DHT22;4333;48.322;14.340;2023-02-22T03:52:56;2.90;99.90
8591;DHT22;4333;48.322;14.340;2023-02-22T03:55:25;2.90;99.90
8591;DHT22;4333;48.322;14.340;2023-02-22T03:57:58;3.10;99.90
8591;DHT22;4333;48.322;14.340;2023-02-22T04:00:26;3.10;99.90
8591;DHT22;4333;48.322;14.340;2023-02-22T04:02:54;3.00;99.90
8591;DHT22;4333;48.322;14.340;2023-02-22T04:05:28;3.10;99.90
8591;DHT22;4333;48.322;14.340;2023-02-22T04:07:55;3.10;99.90
8591;DHT22;4333;48.322;14.340;2023-02-22T04:10:22;3.10;99.90
8591;DHT22;4333;48.322;14.340;2023-02-22T04:12:48;3.10;99.90
8591;DHT22;4333;48.322;14.340;2023-02-22T04:15:20;3.10;99.90
8591;DHT22;4333;48.322;14.340;2023-02-22T04:17:45;3.10;99.90
8591;DHT22;4333;48.322;14.340;2023-02-22T04:20:11;3.10;99.90
8591;DHT22;4333;48.322;14.340;2023-02-22T04:22:44;3.00;99.90
8591;DHT22;4333;48.322;14.340;2023-02-22T04:25:10;3.00;99.90
8591;DHT22;4333;48.322;14.340;2023-02-22T04:27:36;3.00;99.90
8591;DHT22;4333;48.322;14.340;2023-02-22T04:30:04;2.90;99.90
8591;DHT22;4333;48.322;14.340;2023-02-22T04:32:30;2.90;99.90
8591;DHT22;4333;48.322;14.340;2023-02-22T04:34:58;2.90;99.90
8591;DHT22;4333;48.322;14.340;2023-02-22T04:37:24;3.00;99.90
8591;DHT22;4333;48.322;14.340;2023-02-22T04:39:49;2.90;99.90
8591;DHT22;4333;48.322;14.340;2023-02-22T04:42:15;2.90;99.90
8591;DHT22;4333;48.322;14.340;2023-02-22T04:44:41;2.90;99.90
8591;DHT22;4333;48.322;14.340;2023-02-22T04:47:11;2.90;99.90
8591;DHT22;4333;48.322;14.340;2023-02-22T04:49:37;2.90;99.90
8591;DHT22;4333;48.322;14.340;2023-02-22T04:52:02;3.00;99.90
8591;DHT22;4333;48.322;14.340;2023-02-22T04:54:28;3.00;99.90
8591;DHT22;4333;48.322;14.340;2023-02-22T04:56:54;2.90;99.90
8591;DHT22;4333;48.322;14.340;2023-02-22T04:59:20;2.80;99.90
8591;DHT22;4333;48.322;14.340;2023-02-22T05:01:45;2.70;99.90
8591;DHT22;4333;48.322;14.340;2023-02-22T05:04:11;2.70;99.90
8591;DHT22;4333;48.322;14.340;2023-02-22T05:06:37;2.70;99.90
8591;DHT22;4333;48.322;14.340;2023-02-22T05:09:03;2.70;99.90
8591;DHT22;4333;48.322;14.340;2023-02-22T05:11:28;2.80;99.90
8591;DHT22;4333;48.322;14.340;2023-02-22T05:13:54;2.90;99.90
8591;DHT22;4333;48.322;14.340;2023-02-22T05:16:20;2.90;99.90
8591;DHT22;4333;48.322;14.340;2023-02-22T05:18:46;2.90;99.90
8591;DHT22;4333;48.322;14.340;2023-02-22T05:21:12;2.80;99.90
8591;DHT22;4333;48.322;14.340;2023-02-22T05:23:40;2.80;99.90
8591;DHT22;4333;48.322;14.340;2023-02-22T05:26:06;2.80;99.90
8591;DHT22;4333;48.322;14.340;2023-02-22T05:28:32;2.80;99.90
8591;DHT22;4333;48.322;14.340;2023-02-22T05:30:58;2.70;99.90
8591;DHT22;4333;48.322;14.340;2023-02-22T05:33:23;2.60;99.90
8591;DHT22;4333;48.322;14.340;2023-02-22T05:35:49;2.80;99.90
8591;DHT22;4333;48.322;14.340;2023-02-22T05:38:20;2.70;99.90
8591;DHT22;4333;48.322;14.340;2023-02-22T05:40:46;2.70;99.90
8591;DHT22;4333;48.322;14.340;2023-02-22T05:43:11;2.60;99.90
8591;DHT22;4333;48.322;14.340;2023-02-22T05:45:37;2.50;99.90
8591;DHT22;4333;48.322;14.340;2023-02-22T05:48:03;2.50;99.90
8591;DHT22;4333;48.322;14.340;2023-02-22T05:50:29;2.50;99.90
8591;DHT22;4333;48.322;14.340;2023-02-22T05:52:55;2.50;99.90
8591;DHT22;4333;48.322;14.340;2023-02-22T05:55:22;2.50;99.90
8591;DHT22;4333;48.322;14.340;2023-02-22T05:57:48;2.50;99.90
8591;DHT22;4333;48.322;14.340;2023-02-22T06:00:25;2.50;99.90
8591;DHT22;4333;48.322;14.340;2023-02-22T06:02:58;2.60;99.90
8591;DHT22;4333;48.322;14.340;2023-02-22T06:05:25;2.60;99.90
8591;DHT22;4333;48.322;14.340;2023-02-22T06:07:51;2.50;99.90
8591;DHT22;4333;48.322;14.340;2023-02-22T06:10:17;2.50;99.90
8591;DHT22;4333;48.322;14.340;2023-02-22T06:12:48;2.60;99.90
8591;DHT22;4333;48.322;14.340;2023-02-22T06:15:18;2.60;99.90
8591;DHT22;4333;48.322;14.340;2023-02-22T06:17:45;2.70;99.90
8591;DHT22;4333;48.322;14.340;2023-02-22T06:20:12;2.80;99.90
8591;DHT22;4333;48.322;14.340;2023-02-22T06:22:38;2.90;99.90
8591;DHT22;4333;48.322;14.340;2023-02-22T06:25:08;2.90;99.90
8591;DHT22;4333;48.322;14.340;2023-02-22T06:27:35;3.00;99.90
8591;DHT22;4333;48.322;14.340;2023-02-22T06:30:01;3.00;99.90
8591;DHT22;4333;48.322;14.340;2023-02-22T06:32:27;2.90;99.90
8591;DHT22;4333;48.322;14.340;2023-02-22T06:34:53;2.90;99.90
8591;DHT22;4333;48.322;14.340;2023-02-22T06:37:19;2.90;99.90
8591;DHT22;4333;48.322;14.340;2023-02-22T06:39:44;3.00;99.90
8591;DHT22;4333;48.322;14.340;2023-02-22T06:42:10;3.00;99.90
8591;DHT22;4333;48.322;14.340;2023-02-22T06:44:36;3.10;99.90
8591;DHT22;4333;48.322;14.340;2023-02-22T06:47:01;3.10;99.90
8591;DHT22;4333;48.322;14.340;2023-02-22T06:49:27;3.20;99.90
8591;DHT22;4333;48.322;14.340;2023-02-22T06:51:55;3.30;99.90
8591;DHT22;4333;48.322;14.340;2023-02-22T06:54:21;3.40;99.90
8591;DHT22;4333;48.322;14.340;2023-02-22T06:56:47;3.50;99.90
8591;DHT22;4333;48.322;14.340;2023-02-22T06:59:14;3.60;99.90
8591;DHT22;4333;48.322;14.340;2023-02-22T07:01:43;3.70;99.90
8591;DHT22;4333;48.322;14.340;2023-02-22T07:04:09;3.70;99.90
8591;DHT22;4333;48.322;14.340;2023-02-22T07:06:35;3.60;99.90
8591;DHT22;4333;48.322;14.340;2023-02-22T07:09:02;3.60;99.90
8591;DHT22;4333;48.322;14.340;2023-02-22T07:11:28;3.70;99.90
8591;DHT22;4333;48.322;14.340;2023-02-22T07:13:54;3.80;99.90
8591;DHT22;4333;48.322;14.340;2023-02-22T07:16:20;4.10;99.90
8591;DHT22;4333;48.322;14.340;2023-02-22T07:18:50;4.30;99.90
8591;DHT22;4333;48.322;14.340;2023-02-22T07:21:15;4.50;99.90
8591;DHT22;4333;48.322;14.340;2023-02-22T07:23:49;4.60;99.90
8591;DHT22;4333;48.322;14.340;2023-02-22T07:26:16;4.80;99.90
8591;DHT22;4333;48.322;14.340;2023-02-22T07:28:44;4.70;99.90
8591;DHT22;4333;48.322;14.340;2023-02-22T07:31:10;4.80;99.90
8591;DHT22;4333;48.322;14.340;2023-02-22T07:33:36;5.00;99.90
8591;DHT22;4333;48.322;14.340;2023-02-22T07:36:01;5.30;99.90
8591;DHT22;4333;48.322;14.340;2023-02-22T07:38:27;6.00;99.90
8591;DHT22;4333;48.322;14.340;2023-02-22T07:40:55;6.70;99.90
8591;DHT22;4333;48.322;14.340;2023-02-22T07:43:31;7.30;99.90
8591;DHT22;4333;48.322;14.340;2023-02-22T07:45:59;8.10;99.90
8591;DHT22;4333;48.322;14.340;2023-02-22T07:48:30;8.90;99.90
8591;DHT22;4333;48.322;14.340;2023-02-22T07:50:56;9.60;99.90
8591;DHT22;4333;48.322;14.340;2023-02-22T07:53:30;9.70;99.90
8591;DHT22;4333;48.322;14.340;2023-02-22T07:56:01;9.70;99.90
8591;DHT22;4333;48.322;14.340;2023-02-22T07:58:29;9.50;99.90
8591;DHT22;4333;48.322;14.340;2023-02-22T08:00:55;9.30;99.60
8591;DHT22;4333;48.322;14.340;2023-02-22T08:03:29;9.60;99.90
8591;DHT22;4333;48.322;14.340;2023-02-22T08:05:58;10.00;99.90
8591;DHT22;4333;48.322;14.340;2023-02-22T08:08:25;10.30;98.30
8591;DHT22;4333;48.322;14.340;2023-02-22T08:10:51;10.60;95.60
8591;DHT22;4333;48.322;14.340;2023-02-22T08:13:17;10.70;94.00
8591;DHT22;4333;48.322;14.340;2023-02-22T08:15:43;11.20;90.70
8591;DHT22;4333;48.322;14.340;2023-02-22T08:18:11;11.80;83.30
8591;DHT22;4333;48.322;14.340;2023-02-22T08:20:39;12.70;71.90
8591;DHT22;4333;48.322;14.340;2023-02-22T08:23:09;13.70;63.00
8591;DHT22;4333;48.322;14.340;2023-02-22T08:25:43;14.80;56.10
8591;DHT22;4333;48.322;14.340;2023-02-22T08:28:11;15.80;47.90
8591;DHT22;4333;48.322;14.340;2023-02-22T08:30:38;16.50;30.40
8591;DHT22;4333;48.322;14.340;2023-02-22T08:33:04;16.70;19.00
8591;DHT22;4333;48.322;14.340;2023-02-22T08:35:31;15.80;17.10
8591;DHT22;4333;48.322;14.340;2023-02-22T08:38:00;15.90;25.80
8591;DHT22;4333;48.322;14.340;2023-02-22T08:40:32;16.30;19.50
8591;DHT22;4333;48.322;14.340;2023-02-22T08:42:58;17.00;14.50
8591;DHT22;4333;48.322;14.340;2023-02-22T08:45:24;17.50;13.30
8591;DHT22;4333;48.322;14.340;2023-02-22T08:47:50;17.50;9.60
8591;DHT22;4333;48.322;14.340;2023-02-22T08:50:21;16.50;7.20
8591;DHT22;4333;48.322;14.340;2023-02-22T08:52:52;15.80;12.20
8591;DHT22;4333;48.322;14.340;2023-02-22T08:55:23;14.90;15.10
8591;DHT22;4333;48.322;14.340;2023-02-22T08:57:52;14.60;19.60
8591;DHT22;4333;48.322;14.340;2023-02-22T09:00:19;14.80;23.80
8591;DHT22;4333;48.322;14.340;2023-02-22T09:02:45;14.90;19.70
8591;DHT22;4333;48.322;14.340;2023-02-22T09:05:11;14.60;20.50
8591;DHT22;4333;48.322;14.340;2023-02-22T09:07:40;14.10;23.90
8591;DHT22;4333;48.322;14.340;2023-02-22T09:10:16;14.10;26.50
8591;DHT22;4333;48.322;14.340;2023-02-22T09:12:45;14.60;25.00
8591;DHT22;4333;48.322;14.340;2023-02-22T09:15:11;15.00;24.70
8591;DHT22;4333;48.322;14.340;2023-02-22T09:17:39;15.50;24.30
8591;DHT22;4333;48.322;14.340;2023-02-22T09:20:06;16.30;20.70
8591;DHT22;4333;48.322;14.340;2023-02-22T09:22:34;17.20;18.60
8591;DHT22;4333;48.322;14.340;2023-02-22T09:25:00;17.10;12.50
8591;DHT22;4333;48.322;14.340;2023-02-22T09:27:25;16.90;9.70
8591;DHT22;4333;48.322;14.340;2023-02-22T09:29:54;16.10;11.30
8591;DHT22;4333;48.322;14.340;2023-02-22T09:32:22;16.40;16.00
8591;DHT22;4333;48.322;14.340;2023-02-22T09:34:48;16.10;14.00
8591;DHT22;4333;48.322;14.340;2023-02-22T09:37:14;16.10;17.30
8591;DHT22;4333;48.322;14.340;2023-02-22T09:39:41;16.10;14.10
8591;DHT22;4333;48.322;14.340;2023-02-22T09:42:28;15.80;17.00
8591;DHT22;4333;48.322;14.340;2023-02-22T09:45:05;16.10;17.70
8591;DHT22;4333;48.322;14.340;2023-02-22T09:47:52;16.20;17.20
8591;DHT22;4333;48.322;14.340;2023-02-22T09:50:28;16.80;17.20
8591;DHT22;4333;48.322;14.340;2023-02-22T09:58:32;17.10;14.60
8591;DHT22;4333;48.322;14.340;2023-02-22T10:01:25;17.30;11.10
8591;DHT22;4333;48.322;14.340;2023-02-22T10:04:10;16.30;11.10
8591;DHT22;4333;48.322;14.340;2023-02-22T10:06:59;15.30;18.40
8591;DHT22;4333;48.322;14.340;2023-02-22T10:09:33;15.60;22.40
8591;DHT22;4333;48.322;14.340;2023-02-22T10:15:29;15.10;23.30
8591;DHT22;4333;48.322;14.340;2023-02-22T10:24:04;15.50;20.70
8591;DHT22;4333;48.322;14.340;2023-02-22T10:26:41;15.90;20.10
8591;DHT22;4333;48.322;14.340;2023-02-22T10:29:31;15.80;17.00
8591;DHT22;4333;48.322;14.340;2023-02-22T10:32:05;15.70;17.30
8591;DHT22;4333;48.322;14.340;2023-02-22T10:34:48;15.70;17.30
8591;DHT22;4333;48.322;14.340;2023-02-22T10:37:33;16.10;15.60
8591;DHT22;4333;48.322;14.340;2023-02-22T10:42:30;16.00;16.30
8591;DHT22;4333;48.322;14.340;2023-02-22T10:44:56;16.40;13.20
8591;DHT22;4333;48.322;14.340;2023-02-22T10:47:23;15.80;14.10
8591;DHT22;4333;48.322;14.340;2023-02-22T10:49:54;15.50;15.80
8591;DHT22;4333;48.322;14.340;2023-02-22T10:52:33;15.50;18.40
8591;DHT22;4333;48.322;14.340;2023-02-22T10:55:00;15.40;17.40
8591;DHT22;4333;48.322;14.340;2023-02-22T10:57:30;15.50;19.30
8591;DHT22;4333;48.322;14.340;2023-02-22T11:02:56;15.60;18.30
8591;DHT22;4333;48.322;14.340;2023-02-22T11:05:38;15.90;19.30
8591;DHT22;4333;48.322;14.340;2023-02-22T11:10:46;15.70;17.30
8591;DHT22;4333;48.322;14.340;2023-02-22T11:15:51;15.90;17.00
8591;DHT22;4333;48.322;14.340;2023-02-22T11:18:28;15.80;16.80
8591;DHT22;4333;48.322;14.340;2023-02-22T11:21:04;15.60;18.50
8591;DHT22;4333;48.322;14.340;2023-02-22T11:23:35;15.80;17.10
8591;DHT22;4333;48.322;14.340;2023-02-22T11:26:16;15.70;18.30
8591;DHT22;4333;48.322;14.340;2023-02-22T11:28:45;15.70;17.40
8591;DHT22;4333;48.322;14.340;2023-02-22T11:33:54;15.60;18.60
8591;DHT22;4333;48.322;14.340;2023-02-22T11:36:47;15.80;18.10
8591;DHT22;4333;48.322;14.340;2023-02-22T11:39:42;15.90;18.50
8591;DHT22;4333;48.322;14.340;2023-02-22T11:42:27;16.00;18.10
8591;DHT22;4333;48.322;14.340;2023-02-22T11:50:52;15.60;21.20
8591;DHT22;4333;48.322;14.340;2023-02-22T11:53:30;15.80;19.30
8591;DHT22;4333;48.322;14.340;2023-02-22T12:07:07;16.70;17.90
8591;DHT22;4333;48.322;14.340;2023-02-22T12:18:32;17.40;12.40
8591;DHT22;4333;48.322;14.340;2023-02-22T12:21:11;17.60;10.90
8591;DHT22;4333;48.322;14.340;2023-02-22T12:24:20;17.50;11.30
8591;DHT22;4333;48.322;14.340;2023-02-22T12:26:50;17.20;11.50
8591;DHT22;4333;48.322;14.340;2023-02-22T12:29:28;17.50;12.80
8591;DHT22;4333;48.322;14.340;2023-02-22T12:32:00;17.70;10.70
8591;DHT22;4333;48.322;14.340;2023-02-22T12:34:37;17.30;11.50
8591;DHT22;4333;48.322;14.340;2023-02-22T12:46:16;18.00;7.60
8591;DHT22;4333;48.322;14.340;2023-02-22T12:57:04;17.60;9.90
8591;DHT22;4333;48.322;14.340;2023-02-22T12:59:48;17.40;9.20
8591;DHT22;4333;48.322;14.340;2023-02-22T13:02:17;17.20;12.20
8591;DHT22;4333;48.322;14.340;2023-02-22T13:04:47;17.50;11.70
8591;DHT22;4333;48.322;14.340;2023-02-22T13:10:51;17.50;9.80
8591;DHT22;4333;48.322;14.340;2023-02-22T13:18:51;17.20;13.00
8591;DHT22;4333;48.322;14.340;2023-02-22T13:21:56;17.50;13.80
8591;DHT22;4333;48.322;14.340;2023-02-22T13:24:34;17.60;12.70
8591;DHT22;4333;48.322;14.340;2023-02-22T13:27:17;18.00;9.80
8591;DHT22;4333;48.322;14.340;2023-02-22T13:29:51;17.90;9.90
8591;DHT22;4333;48.322;14.340;2023-02-22T13:32:38;17.70;8.90
8591;DHT22;4333;48.322;14.340;2023-02-22T13:35:30;17.60;11.00
8591;DHT22;4333;48.322;14.340;2023-02-22T13:46:48;17.20;10.60
8591;DHT22;4333;48.322;14.340;2023-02-22T13:51:52;17.40;8.90
8591;DHT22;4333;48.322;14.340;2023-02-22T13:57:02;17.20;9.40
8591;DHT22;4333;48.322;14.340;2023-02-22T13:59:34;17.10;10.10
8591;DHT22;4333;48.322;14.340;2023-02-22T14:02:02;17.30;10.50
8591;DHT22;4333;48.322;14.340;2023-02-22T14:09:55;17.30;10.70
8591;DHT22;4333;48.322;14.340;2023-02-22T14:17:47;17.70;8.00
8591;DHT22;4333;48.322;14.340;2023-02-22T14:22:43;17.20;8.60
8591;DHT22;4333;48.322;14.340;2023-02-22T14:25:29;17.10;9.30
8591;DHT22;4333;48.322;14.340;2023-02-22T14:27:56;16.90;10.20
8591;DHT22;4333;48.322;14.340;2023-02-22T14:30:33;17.10;9.60
8591;DHT22;4333;48.322;14.340;2023-02-22T14:36:05;17.60;8.50
8591;DHT22;4333;48.322;14.340;2023-02-22T14:38:32;17.50;8.40
8591;DHT22;4333;48.322;14.340;2023-02-22T14:41:01;17.50;9.20
8591;DHT22;4333;48.322;14.340;2023-02-22T14:43:28;17.60;8.80
8591;DHT22;4333;48.322;14.340;2023-02-22T14:45:56;17.80;8.10
8591;DHT22;4333;48.322;14.340;2023-02-22T14:50:58;17.80;5.70
8591;DHT22;4333;48.322;14.340;2023-02-22T14:58:40;17.60;8.20
8591;DHT22;4333;48.322;14.340;2023-02-22T15:01:38;17.60;6.60
8591;DHT22;4333;48.322;14.340;2023-02-22T15:04:25;17.50;7.70
8591;DHT22;4333;48.322;14.340;2023-02-22T15:06:52;17.40;7.80
8591;DHT22;4333;48.322;14.340;2023-02-22T15:11:56;17.10;9.80
8591;DHT22;4333;48.322;14.340;2023-02-22T15:14:39;17.20;9.30
8591;DHT22;4333;48.322;14.340;2023-02-22T15:17:18;17.10;9.30
8591;DHT22;4333;48.322;14.340;2023-02-22T15:19:46;17.00;10.20
8591;DHT22;4333;48.322;14.340;2023-02-22T15:22:20;17.10;11.00
8591;DHT22;4333;48.322;14.340;2023-02-22T15:25:05;17.20;9.30
8591;DHT22;4333;48.322;14.340;2023-02-22T15:27:34;17.20;8.80
8591;DHT22;4333;48.322;14.340;2023-02-22T15:30:05;17.20;8.80
8591;DHT22;4333;48.322;14.340;2023-02-22T15:32:41;16.90;8.50
8591;DHT22;4333;48.322;14.340;2023-02-22T15:37:46;16.90;9.50
8591;DHT22;4333;48.322;14.340;2023-02-22T15:40:17;16.80;9.50
8591;DHT22;4333;48.322;14.340;2023-02-22T15:42:47;16.70;10.50
8591;DHT22;4333;48.322;14.340;2023-02-22T15:45:18;16.90;10.90
8591;DHT22;4333;48.322;14.340;2023-02-22T15:47:44;16.80;9.70
8591;DHT22;4333;48.322;14.340;2023-02-22T15:53:00;16.50;10.70
8591;DHT22;4333;48.322;14.340;2023-02-22T15:55:42;16.50;12.30
8591;DHT22;4333;48.322;14.340;2023-02-22T16:00:50;16.20;12.30
8591;DHT22;4333;48.322;14.340;2023-02-22T16:03:24;15.90;13.50
8591;DHT22;4333;48.322;14.340;2023-02-22T16:05:58;15.90;15.90
8591;DHT22;4333;48.322;14.340;2023-02-22T16:08:34;15.70;18.50
8591;DHT22;4333;48.322;14.340;2023-02-22T16:11:04;15.40;19.80
8591;DHT22;4333;48.322;14.340;2023-02-22T16:13:39;15.40;19.60
8591;DHT22;4333;48.322;14.340;2023-02-22T16:16:20;15.40;21.00
8591;DHT22;4333;48.322;14.340;2023-02-22T16:18:49;15.30;18.30
8591;DHT22;4333;48.322;14.340;2023-02-22T16:21:20;15.20;18.70
8591;DHT22;4333;48.322;14.340;2023-02-22T16:23:51;15.00;19.90
8591;DHT22;4333;48.322;14.340;2023-02-22T16:28:49;14.70;21.90
8591;DHT22;4333;48.322;14.340;2023-02-22T16:31:17;14.60;22.80
8591;DHT22;4333;48.322;14.340;2023-02-22T16:33:46;14.50;22.60
8591;DHT22;4333;48.322;14.340;2023-02-22T16:36:12;14.30;23.70
8591;DHT22;4333;48.322;14.340;2023-02-22T16:38:39;14.10;25.10
8591;DHT22;4333;48.322;14.340;2023-02-22T16:41:08;13.90;25.70
8591;DHT22;4333;48.322;14.340;2023-02-22T16:43:35;13.70;27.20
8591;DHT22;4333;48.322;14.340;2023-02-22T16:46:02;13.70;26.90
8591;DHT22;4333;48.322;14.340;2023-02-22T16:48:33;13.50;28.50
8591;DHT22;4333;48.322;14.340;2023-02-22T16:51:08;13.50;29.70
8591;DHT22;4333;48.322;14.340;2023-02-22T16:53:36;13.30;30.40
8591;DHT22;4333;48.322;14.340;2023-02-22T16:56:04;13.20;31.30
8591;DHT22;4333;48.322;14.340;2023-02-22T16:58:35;13.10;32.80
8591;DHT22;4333;48.322;14.340;2023-02-22T17:01:05;12.80;35.10
8591;DHT22;4333;48.322;14.340;2023-02-22T17:03:31;12.80;36.30
8591;DHT22;4333;48.322;14.340;2023-02-22T17:05:56;12.80;37.60
8591;DHT22;4333;48.322;14.340;2023-02-22T17:08:22;12.60;37.70
8591;DHT22;4333;48.322;14.340;2023-02-22T17:10:52;12.60;38.50
8591;DHT22;4333;48.322;14.340;2023-02-22T17:13:23;12.40;39.80
8591;DHT22;4333;48.322;14.340;2023-02-22T17:15:49;12.30;40.70
8591;DHT22;4333;48.322;14.340;2023-02-22T17:18:17;12.30;42.50
8591;DHT22;4333;48.322;14.340;2023-02-22T17:20:47;12.20;43.60
8591;DHT22;4333;48.322;14.340;2023-02-22T17:23:13;12.10;44.60
8591;DHT22;4333;48.322;14.340;2023-02-22T17:25:42;12.00;46.30
8591;DHT22;4333;48.322;14.340;2023-02-22T17:28:08;11.70;48.90
8591;DHT22;4333;48.322;14.340;2023-02-22T17:30:34;11.70;51.10
8591;DHT22;4333;48.322;14.340;2023-02-22T17:33:02;11.60;52.40
8591;DHT22;4333;48.322;14.340;2023-02-22T17:35:30;11.60;53.20
8591;DHT22;4333;48.322;14.340;2023-02-22T17:38:00;11.50;53.90
8591;DHT22;4333;48.322;14.340;2023-02-22T17:40:29;11.50;54.40
8591;DHT22;4333;48.322;14.340;2023-02-22T17:42:54;11.50;55.00
8591;DHT22;4333;48.322;14.340;2023-02-22T17:45:22;11.40;55.80
8591;DHT22;4333;48.322;14.340;2023-02-22T17:47:50;11.40;56.70
8591;DHT22;4333;48.322;14.340;2023-02-22T17:50:18;11.40;56.50
8591;DHT22;4333;48.322;14.340;2023-02-22T17:52:45;11.40;56.90
8591;DHT22;4333;48.322;14.340;2023-02-22T17:55:12;11.40;57.00
8591;DHT22;4333;48.322;14.340;2023-02-22T17:57:38;11.40;57.10
8591;DHT22;4333;48.322;14.340;2023-02-22T18:00:11;11.40;57.00
8591;DHT22;4333;48.322;14.340;2023-02-22T18:02:41;11.30;56.90
8591;DHT22;4333;48.322;14.340;2023-02-22T18:05:08;11.20;58.30
8591;DHT22;4333;48.322;14.340;2023-02-22T18:07:35;11.10;58.70
8591;DHT22;4333;48.322;14.340;2023-02-22T18:10:04;11.00;62.10
8591;DHT22;4333;48.322;14.340;2023-02-22T18:12:40;10.90;63.30
8591;DHT22;4333;48.322;14.340;2023-02-22T18:15:09;10.90;63.40
8591;DHT22;4333;48.322;14.340;2023-02-22T18:17:36;10.70;66.20
8591;DHT22;4333;48.322;14.340;2023-02-22T18:20:05;10.60;69.30
8591;DHT22;4333;48.322;14.340;2023-02-22T18:22:42;10.60;70.80
8591;DHT22;4333;48.322;14.340;2023-02-22T18:25:13;10.60;73.10
8591;DHT22;4333;48.322;14.340;2023-02-22T18:27:40;10.60;74.60
8591;DHT22;4333;48.322;14.340;2023-02-22T18:30:08;10.50;76.30
8591;DHT22;4333;48.322;14.340;2023-02-22T18:32:34;10.50;77.80
8591;DHT22;4333;48.322;14.340;2023-02-22T18:35:02;10.40;82.60
8591;DHT22;4333;48.322;14.340;2023-02-22T18:37:28;10.20;83.90
8591;DHT22;4333;48.322;14.340;2023-02-22T18:39:56;10.20;89.10
8591;DHT22;4333;48.322;14.340;2023-02-22T18:42:26;10.20;90.90
8591;DHT22;4333;48.322;14.340;2023-02-22T18:44:53;10.20;90.30
8591;DHT22;4333;48.322;14.340;2023-02-22T18:47:20;10.20;92.30
8591;DHT22;4333;48.322;14.340;2023-02-22T18:49:49;10.10;91.60
8591;DHT22;4333;48.322;14.340;2023-02-22T18:52:14;10.00;93.40
8591;DHT22;4333;48.322;14.340;2023-02-22T18:54:43;9.90;95.00
8591;DHT22;4333;48.322;14.340;2023-02-22T18:57:11;9.80;96.40
8591;DHT22;4333;48.322;14.340;2023-02-22T18:59:43;9.90;96.50
8591;DHT22;4333;48.322;14.340;2023-02-22T19:02:14;9.90;95.60
8591;DHT22;4333;48.322;14.340;2023-02-22T19:04:40;9.80;94.80
8591;DHT22;4333;48.322;14.340;2023-02-22T19:07:08;9.70;97.00
8591;DHT22;4333;48.322;14.340;2023-02-22T19:09:37;9.50;99.90
8591;DHT22;4333;48.322;14.340;2023-02-22T19:12:07;9.40;99.90
8591;DHT22;4333;48.322;14.340;2023-02-22T19:14:33;9.40;99.90